Frederick, OK

2:17 PM CDT on October 24, 2014 (GMT -0500)
Frederick Municipal | Change Station
CLOSE
Current Station
Airport
Location: Frederick,
Elevation: 1253 ft
Nearby Weather Stations

Elev 1253 ft 34.35 °N, 98.98 °W | Updated 24 minutes ago

Clear
Clear
86 °F
Feels Like 86 °F
N
16
Wind Variable Wind from SW
Gusts 24 mph

Today
High -- | Low -- °F
--% Chance of Precip.
Yesterday
High -- | Low -- °F
Precip. -- in
7:49 AM 6:50 PM
New Moon, 1% visible
Pressure 29.99 in
Visibility 10.0 miles
Clouds Clear
Heat Index 86 °F
Dew Point 60 °F
Humidity 41%
Rainfall 0.00 in
Snow Depth Not available.
UV 6 out of 12
Pollen 5.50 out of 12
Air Quality Not available.
Flu Activity No Activity
METAR KFDR 241853Z AUTO 22014G21KT 10SM CLR 30/16 A3003 RMK AO2 SLP154 T03000156

More Conditions Fewer Conditions

Pressure 29.99 in
Visibility 10.0 miles
Clouds Clear
Heat Index 86 °F
Dew Point 60 °F
Humidity 41%
Rainfall 0.00 in
Snow Depth Not available.
UV 6 out of 12
Pollen 5.50 out of 12
Air Quality Not available.
Flu Activity No Activity
METAR KFDR 241853Z AUTO 22014G21KT 10SM CLR 30/16 A3003 RMK AO2 SLP154 T03000156

More Conditions Fewer Conditions

10-Day Weather Forecast

Almanac

Astronomy

Oct. 24, 2014 Rise Set
Actual Time 7:49 AM CDT 6:50 PM CDT
Civil Twilight 7:23 AM CDT 7:16 PM CDT
Nautical Twilight 6:53 AM CDT 7:45 PM CDT
Astronomical Twilight 6:24 AM CDT 8:15 PM CDT
Moon 8:28 AM CDT 7:34 PM CDT
Length of Visible Light 11h 53m
Length of Day
11h 01m
Tomorrow will be 1m 58s shorter.
New Moon, 1% of the Moon is Illuminated
Today
New Moon
Oct 30
First Quarter
Nov 6
Full
Nov 14
Last Quarter
Nov 22
New

Today's Extremes

State Highs State Lows

Community

WunderPhotos

Upload Photos

1,764,638 photos uploaded!

Nearby

Snow Depth

Station Depth Elevation
No new snow has been reported.

Earthquake Activity

City Distance Mag. Time & Date
Luther, Oklahoma 132 miles 2.5 10:36 PM CDT
2014-10-22
Crescent, Oklahoma 142 miles 2.7 9:58 PM CDT
2014-10-22
Langston, Oklahoma 143 miles 2.9 10:03 AM CDT
2014-10-22
Langston, Oklahoma 143 miles 2.6 8:31 AM CDT
2014-10-22
Minimum magnitude displayed is 2.5.

Coastal Water Temperatures

Place Temperature
No Stations Reporting

Nearby Weather Stations